createdAt,value
2018-08-13T00:01:14.470Z,38.20
2018-08-13T00:03:43.601Z,38.20
2018-08-13T00:06:12.483Z,38.10
2018-08-13T00:08:41.363Z,38.70
2018-08-13T00:11:10.222Z,38.70
2018-08-13T00:13:39.207Z,38.70
2018-08-13T00:16:08.094Z,38.70
2018-08-13T00:18:37.538Z,38.50
2018-08-13T00:21:06.444Z,38.10
2018-08-13T00:23:35.347Z,38.80
2018-08-13T00:26:04.221Z,39.00
2018-08-13T00:28:33.116Z,38.40
2018-08-13T00:31:02.282Z,39.00
2018-08-13T00:33:31.184Z,39.00
2018-08-13T00:36:00.383Z,39.10
2018-08-13T00:38:29.319Z,39.30
2018-08-13T00:40:58.572Z,39.10
2018-08-13T00:43:27.770Z,39.60
2018-08-13T00:45:56.660Z,39.90
2018-08-13T00:48:26.462Z,40.20
2018-08-13T00:50:55.356Z,39.90
2018-08-13T00:53:24.271Z,40.20
2018-08-13T00:55:53.385Z,40.30
2018-08-13T00:58:22.256Z,40.90
2018-08-13T01:00:51.120Z,41.20
2018-08-13T01:03:20.495Z,41.20
2018-08-13T01:05:49.896Z,41.60
2018-08-13T01:08:18.828Z,41.20
2018-08-13T01:10:47.923Z,40.30
2018-08-13T01:13:16.840Z,40.70
2018-08-13T01:15:46.012Z,40.60
2018-08-13T01:18:14.909Z,40.20
2018-08-13T01:20:43.790Z,40.90
2018-08-13T01:23:14.073Z,40.90
2018-08-13T01:25:42.969Z,41.20
2018-08-13T01:28:11.921Z,40.90
2018-08-13T01:30:40.782Z,41.00
2018-08-13T01:33:10.130Z,41.20
2018-08-13T01:35:39.320Z,41.30
2018-08-13T01:38:08.178Z,41.60
2018-08-13T01:40:37.371Z,41.90
2018-08-13T01:43:06.673Z,42.10
2018-08-13T01:45:36.075Z,41.90
2018-08-13T01:48:04.999Z,41.90
2018-08-13T01:50:34.158Z,42.80
2018-08-13T01:53:03.146Z,42.50
2018-08-13T01:55:33.067Z,43.10
2018-08-13T01:58:02.198Z,43.00
2018-08-13T02:00:31.087Z,42.80
2018-08-13T02:02:59.960Z,43.10
2018-08-13T02:05:28.866Z,43.10
2018-08-13T02:07:57.738Z,41.60
2018-08-13T02:10:26.615Z,42.40
2018-08-13T02:12:55.787Z,43.10
2018-08-13T02:15:24.679Z,43.60
2018-08-13T02:17:53.587Z,43.90
2018-08-13T02:20:22.704Z,43.90
2018-08-13T02:22:51.815Z,43.10
2018-08-13T02:25:21.399Z,43.60
2018-08-13T02:27:50.276Z,44.10
2018-08-13T02:30:19.168Z,43.60
2018-08-13T02:32:48.069Z,43.70
2018-08-13T02:35:17.163Z,43.90
2018-08-13T02:37:46.063Z,44.00
2018-08-13T02:40:14.931Z,44.10
2018-08-13T02:42:44.137Z,44.40
2018-08-13T02:45:13.062Z,44.90
2018-08-13T02:47:41.925Z,44.90
2018-08-13T02:50:12.281Z,45.00
2018-08-13T02:52:41.427Z,45.20
2018-08-13T02:55:11.392Z,44.70
2018-08-13T02:57:40.595Z,44.30
2018-08-13T03:00:10.870Z,44.40
2018-08-13T03:02:40.267Z,44.00
2018-08-13T03:05:11.524Z,44.10
2018-08-13T03:07:40.913Z,44.00
2018-08-13T03:10:12.123Z,44.00
2018-08-13T03:12:41.477Z,44.30
2018-08-13T03:15:13.743Z,44.40
2018-08-13T03:17:43.270Z,44.60
2018-08-13T03:20:12.555Z,44.30
2018-08-13T03:22:41.484Z,44.10
2018-08-13T03:25:10.726Z,44.90
2018-08-13T03:27:40.258Z,44.40
2018-08-13T03:30:11.488Z,44.60
2018-08-13T03:32:40.807Z,44.30
2018-08-13T03:35:10.127Z,44.60
2018-08-13T03:37:39.534Z,44.40
2018-08-13T03:40:10.432Z,45.00
2018-08-13T03:42:39.601Z,45.00
2018-08-13T03:45:10.555Z,45.00
2018-08-13T03:47:39.609Z,45.20
2018-08-13T03:50:09.795Z,45.60
2018-08-13T03:52:39.082Z,45.30
2018-08-13T03:55:09.516Z,45.30
2018-08-13T03:57:38.477Z,45.00
2018-08-13T04:00:10.585Z,45.20
2018-08-13T04:02:40.096Z,44.90
2018-08-13T04:05:09.682Z,45.00
2018-08-13T04:07:39.261Z,45.20
2018-08-13T04:10:10.077Z,45.00
2018-08-13T04:12:40.997Z,44.90
2018-08-13T04:15:11.379Z,45.20
2018-08-13T04:17:40.542Z,45.50
2018-08-13T04:20:10.710Z,45.50
2018-08-13T04:22:39.668Z,45.80
2018-08-13T04:25:09.706Z,46.20
2018-08-13T04:27:39.513Z,45.80
2018-08-13T04:30:11.899Z,44.90
2018-08-13T04:32:40.940Z,44.70
2018-08-13T04:35:09.895Z,44.60
2018-08-13T04:37:39.220Z,44.40
2018-08-13T04:40:10.845Z,44.70
2018-08-13T04:42:40.668Z,44.90
2018-08-13T04:45:10.276Z,45.00
2018-08-13T04:47:39.429Z,45.20
2018-08-13T04:50:09.757Z,45.50
2018-08-13T04:52:38.782Z,45.80
2018-08-13T04:55:08.799Z,46.20
2018-08-13T04:57:38.050Z,45.90
2018-08-13T05:00:07.624Z,45.80
2018-08-13T05:02:36.524Z,45.60
2018-08-13T05:05:06.884Z,45.50
2018-08-13T05:07:35.806Z,45.20
2018-08-13T05:10:05.773Z,45.30
2018-08-13T05:12:34.682Z,45.30
2018-08-13T05:15:04.490Z,45.20
2018-08-13T05:17:33.367Z,45.60
2018-08-13T05:20:02.898Z,44.70
2018-08-13T05:22:32.134Z,42.80
2018-08-13T05:25:01.305Z,42.40
2018-08-13T05:27:30.235Z,41.50
2018-08-13T05:29:59.175Z,40.30
2018-08-13T05:32:30.019Z,39.40
2018-08-13T05:34:59.009Z,39.70
2018-08-13T05:37:27.875Z,39.60
2018-08-13T05:39:56.982Z,39.70
2018-08-13T05:42:25.857Z,40.30
2018-08-13T05:44:54.791Z,40.00
2018-08-13T05:47:23.686Z,39.30
2018-08-13T05:49:52.667Z,39.90
2018-08-13T05:52:21.574Z,39.10
2018-08-13T05:54:50.494Z,39.40
2018-08-13T05:57:19.443Z,39.10
2018-08-13T05:59:48.336Z,39.00
2018-08-13T06:02:17.523Z,39.90
2018-08-13T06:04:46.450Z,39.90
2018-08-13T06:07:15.570Z,39.60
2018-08-13T06:09:45.454Z,40.30
2018-08-13T06:12:14.735Z,40.00
2018-08-13T06:14:43.636Z,39.70
2018-08-13T06:17:12.609Z,38.80
2018-08-13T06:19:41.985Z,37.60
2018-08-13T06:22:11.549Z,37.40
2018-08-13T06:24:40.507Z,35.60
2018-08-13T06:27:10.488Z,35.70
2018-08-13T06:29:39.427Z,35.60
2018-08-13T06:32:08.621Z,34.70
2018-08-13T06:34:37.731Z,34.10
2018-08-13T06:37:06.752Z,33.80
2018-08-13T06:39:35.615Z,32.90
2018-08-13T06:42:04.507Z,32.80
2018-08-13T06:44:33.439Z,32.50
2018-08-13T06:47:02.373Z,32.00
2018-08-13T06:49:31.351Z,30.40
2018-08-13T06:52:01.376Z,29.80
2018-08-13T06:54:30.573Z,29.60
2018-08-13T06:56:59.724Z,29.30
2018-08-13T06:59:28.611Z,29.10
2018-08-13T07:01:57.539Z,28.80
2018-08-13T07:04:26.497Z,28.80
2018-08-13T07:06:55.402Z,28.80
2018-08-13T07:09:24.336Z,28.60
2018-08-13T07:11:53.348Z,27.90
2018-08-13T07:14:22.293Z,28.20
2018-08-13T07:16:51.215Z,27.60
2018-08-13T07:19:20.348Z,28.30
2018-08-13T07:21:49.440Z,28.50
2018-08-13T07:24:18.636Z,27.90
2018-08-13T07:26:47.567Z,27.80
2018-08-13T07:29:17.384Z,27.60
2018-08-13T07:31:46.266Z,28.60
2018-08-13T07:34:15.188Z,28.30
2018-08-13T07:36:44.784Z,28.60
2018-08-13T07:39:14.074Z,28.00
2018-08-13T07:41:42.985Z,27.80
2018-08-13T07:44:12.235Z,27.00
2018-08-13T07:46:42.321Z,26.50
2018-08-13T07:49:12.108Z,26.60
2018-08-13T07:51:41.588Z,26.20
2018-08-13T07:54:10.600Z,26.00
2018-08-13T07:56:39.491Z,25.80
2018-08-13T07:59:08.639Z,25.40
2018-08-13T08:01:38.182Z,25.30
2018-08-13T08:04:07.155Z,24.90
2018-08-13T08:06:36.026Z,24.30
2018-08-13T08:09:08.661Z,23.80
2018-08-13T08:11:37.642Z,23.40
2018-08-13T08:14:06.966Z,23.70
2018-08-13T08:16:35.979Z,24.20
2018-08-13T08:19:04.969Z,24.30
2018-08-13T08:21:34.308Z,23.90
2018-08-13T08:24:03.242Z,23.60
2018-08-13T08:26:32.230Z,23.00
2018-08-13T08:29:01.202Z,22.80
2018-08-13T08:31:30.467Z,22.60
2018-08-13T08:33:59.726Z,22.40
2018-08-13T08:36:29.113Z,22.40
2018-08-13T08:38:58.270Z,22.70
2018-08-13T08:41:27.405Z,22.10
2018-08-13T08:43:56.511Z,21.30
2018-08-13T08:46:25.488Z,21.00
2018-08-13T08:48:54.407Z,21.20
2018-08-13T08:51:23.805Z,22.00
2018-08-13T08:53:53.086Z,22.50
2018-08-13T08:56:22.064Z,22.30
2018-08-13T08:58:51.387Z,22.50
2018-08-13T09:01:20.357Z,21.80
2018-08-13T09:03:49.270Z,21.60
2018-08-13T09:06:18.453Z,22.00
2018-08-13T09:08:47.364Z,22.30
2018-08-13T09:11:16.512Z,22.00
2018-08-13T09:13:45.600Z,21.90
2018-08-13T09:16:15.167Z,21.20
2018-08-13T09:18:56.653Z,20.50
2018-08-13T09:21:29.691Z,19.40
2018-08-13T09:24:10.918Z,19.90
2018-08-13T09:26:51.913Z,20.40
2018-08-13T09:29:32.851Z,19.40
2018-08-13T09:32:24.403Z,18.20
2018-08-13T09:35:09.432Z,19.00
2018-08-13T09:37:39.210Z,19.20
2018-08-13T09:40:09.051Z,18.50
2018-08-13T09:42:37.975Z,17.90
2018-08-13T09:45:07.950Z,17.50
2018-08-13T09:47:37.482Z,17.80
2018-08-13T09:50:09.018Z,17.90
2018-08-13T09:52:38.949Z,17.70
2018-08-13T09:55:08.676Z,17.60
2018-08-13T09:57:37.942Z,17.50
2018-08-13T10:00:13.725Z,17.60
2018-08-13T10:02:43.255Z,16.70
2018-08-13T10:05:12.214Z,16.50
2018-08-13T10:07:44.381Z,16.80
2018-08-13T10:10:14.906Z,16.10
2018-08-13T10:12:44.408Z,15.50
2018-08-13T10:15:13.991Z,15.80
2018-08-13T10:17:42.903Z,16.00
2018-08-13T10:20:15.476Z,15.10
2018-08-13T10:22:44.493Z,16.20
2018-08-13T10:25:16.231Z,14.40
2018-08-13T10:27:45.084Z,14.20
2018-08-13T10:30:16.467Z,14.30
2018-08-13T10:32:45.890Z,14.80
2018-08-13T10:35:15.098Z,14.00
2018-08-13T10:37:44.273Z,13.90
2018-08-13T10:40:15.312Z,13.70
2018-08-13T10:42:44.710Z,14.20
2018-08-13T10:45:13.950Z,14.10
2018-08-13T10:47:43.442Z,13.20
2018-08-13T10:50:14.103Z,13.20
2018-08-13T10:52:43.689Z,12.40
2018-08-13T10:55:15.669Z,12.50
2018-08-13T10:57:44.542Z,12.90
2018-08-13T11:00:14.679Z,13.90
2018-08-13T11:02:43.760Z,15.20
2018-08-13T11:05:13.526Z,14.20
2018-08-13T11:07:44.494Z,15.10
2018-08-13T11:10:14.282Z,14.10
2018-08-13T11:12:43.108Z,14.10
2018-08-13T11:15:17.125Z,14.60
2018-08-13T11:17:46.393Z,14.90
2018-08-13T11:20:16.099Z,14.50
2018-08-13T11:22:45.238Z,14.70
2018-08-13T11:25:15.243Z,15.00
2018-08-13T11:27:44.218Z,14.10
2018-08-13T11:30:15.244Z,13.90
2018-08-13T11:32:45.141Z,14.00
2018-08-13T11:35:14.904Z,13.00
2018-08-13T11:37:43.793Z,13.30
2018-08-13T11:40:14.129Z,12.20
2018-08-13T11:42:43.066Z,12.50
2018-08-13T11:45:11.928Z,12.50
2018-08-13T11:47:41.194Z,12.70
2018-08-13T11:50:13.575Z,12.90
2018-08-13T11:52:43.336Z,12.70
2018-08-13T11:55:12.263Z,12.30
2018-08-13T11:57:42.053Z,12.00
2018-08-13T12:00:13.515Z,13.10
2018-08-13T12:02:43.028Z,12.20
2018-08-13T12:05:14.941Z,13.00
2018-08-13T12:07:45.095Z,13.40
2018-08-13T12:10:15.962Z,13.70
2018-08-13T12:12:45.516Z,14.20
2018-08-13T12:15:14.971Z,13.60
2018-08-13T12:17:44.337Z,14.00
2018-08-13T12:20:17.414Z,14.50
2018-08-13T12:22:47.438Z,14.80
2018-08-13T12:25:21.588Z,14.80
2018-08-13T12:27:51.664Z,14.80
2018-08-13T12:30:20.872Z,13.70
2018-08-13T12:32:50.373Z,13.00
2018-08-13T12:35:20.280Z,13.30
2018-08-13T12:37:49.650Z,13.90
2018-08-13T12:40:18.578Z,14.10
2018-08-13T12:42:47.505Z,13.20
2018-08-13T12:45:17.889Z,13.50
2018-08-13T12:47:47.041Z,13.00
2018-08-13T12:50:17.718Z,13.20
2018-08-13T12:52:47.738Z,12.60
2018-08-13T12:55:17.454Z,12.50
2018-08-13T12:57:46.419Z,12.50
2018-08-13T13:00:16.655Z,12.10
2018-08-13T13:02:45.544Z,12.10
2018-08-13T13:05:15.938Z,11.80
2018-08-13T13:07:45.919Z,11.70
2018-08-13T13:10:16.033Z,12.20
2018-08-13T13:12:45.581Z,12.10
2018-08-13T13:15:18.913Z,12.20
2018-08-13T13:17:47.923Z,13.40
2018-08-13T13:20:20.762Z,13.60
2018-08-13T13:22:50.143Z,13.80
2018-08-13T13:25:25.738Z,14.10
2018-08-13T13:27:54.675Z,13.50
2018-08-13T13:30:23.531Z,13.80
2018-08-13T13:32:52.439Z,13.50
2018-08-13T13:35:21.363Z,13.90
2018-08-13T13:37:50.462Z,14.10
2018-08-13T13:40:19.624Z,14.10
2018-08-13T13:42:48.697Z,14.20
2018-08-13T13:45:17.818Z,14.80
2018-08-13T13:47:46.802Z,15.50
2018-08-13T13:50:17.039Z,15.30
2018-08-13T13:52:46.271Z,15.40
2018-08-13T13:55:16.224Z,15.10
2018-08-13T13:57:45.084Z,14.90
2018-08-13T14:00:16.903Z,14.90
2018-08-13T14:02:47.190Z,15.00
2018-08-13T14:05:16.056Z,15.60
2018-08-13T14:07:44.982Z,15.20
2018-08-13T14:10:16.490Z,15.20
2018-08-13T14:12:45.855Z,15.20
2018-08-13T14:15:16.602Z,15.50
2018-08-13T14:17:45.872Z,15.50
2018-08-13T14:20:14.795Z,16.00
2018-08-13T14:22:44.072Z,16.00
2018-08-13T14:25:13.963Z,16.30
2018-08-13T14:27:43.051Z,16.60
2018-08-13T14:30:18.407Z,16.80
2018-08-13T14:32:47.799Z,16.90
2018-08-13T14:35:17.819Z,17.20
2018-08-13T14:37:46.770Z,17.40
2018-08-13T14:40:15.641Z,17.40
2018-08-13T14:42:45.028Z,17.50
2018-08-13T14:45:15.864Z,17.80
2018-08-13T14:47:46.044Z,18.00
2018-08-13T14:50:15.047Z,18.20
2018-08-13T14:52:45.102Z,18.30
2018-08-13T14:55:15.970Z,18.80
2018-08-13T14:57:45.086Z,19.40
2018-08-13T15:00:26.198Z,20.00
2018-08-13T15:02:55.707Z,20.40
2018-08-13T15:05:24.599Z,20.80
2018-08-13T15:07:53.478Z,20.90
2018-08-13T15:10:23.518Z,21.20
2018-08-13T15:12:53.463Z,21.40
2018-08-13T15:15:22.658Z,21.50
2018-08-13T15:17:51.583Z,21.80
2018-08-13T15:20:23.739Z,22.00
2018-08-13T15:22:52.904Z,22.10
2018-08-13T15:25:22.051Z,22.50
2018-08-13T15:27:51.360Z,22.60
2018-08-13T15:30:20.742Z,22.70
2018-08-13T15:32:51.417Z,23.20
2018-08-13T15:35:21.893Z,23.50
2018-08-13T15:37:51.822Z,23.70
2018-08-13T15:40:21.118Z,24.20
2018-08-13T15:42:50.154Z,24.40
2018-08-13T15:45:21.556Z,24.60
2018-08-13T15:47:50.593Z,24.70
2018-08-13T15:50:20.708Z,25.00
2018-08-13T15:52:49.861Z,25.10
2018-08-13T15:55:18.883Z,25.40
2018-08-13T15:57:48.185Z,25.60
2018-08-13T16:00:23.310Z,25.70
2018-08-13T16:02:52.687Z,25.90
2018-08-13T16:05:21.874Z,26.10
2018-08-13T16:07:52.212Z,26.30
2018-08-13T16:10:21.133Z,26.60
2018-08-13T16:12:50.326Z,27.10
2018-08-13T16:15:19.251Z,27.60
2018-08-13T16:17:48.255Z,28.00
2018-08-13T16:20:18.827Z,27.90
2018-08-13T16:22:48.708Z,28.00
2018-08-13T16:25:18.150Z,28.60
2018-08-13T16:27:48.392Z,28.40
2018-08-13T16:30:32.523Z,29.30
2018-08-13T16:33:01.598Z,30.70
2018-08-13T16:35:30.674Z,30.40
2018-08-13T16:37:59.701Z,31.30
2018-08-13T16:40:28.694Z,31.90
2018-08-13T16:42:57.573Z,31.40
2018-08-13T16:45:26.522Z,32.60
2018-08-13T16:47:55.464Z,33.50
2018-08-13T16:50:30.514Z,33.50
2018-08-13T16:52:59.874Z,34.70
2018-08-13T16:55:30.244Z,35.70
2018-08-13T16:58:00.371Z,36.00
2018-08-13T17:00:31.451Z,35.10
2018-08-13T17:03:00.726Z,33.50
2018-08-13T17:05:31.397Z,34.00
2018-08-13T17:08:00.279Z,34.00
2018-08-13T17:10:29.976Z,35.10
2018-08-13T17:12:59.273Z,35.90
2018-08-13T17:15:29.980Z,36.20
2018-08-13T17:18:00.415Z,35.40
2018-08-13T17:20:35.118Z,36.20
2018-08-13T17:23:04.022Z,34.80
2018-08-13T17:25:32.947Z,36.30
2018-08-13T17:28:02.216Z,37.10
2018-08-13T17:30:31.123Z,37.60
2018-08-13T17:33:01.138Z,38.50
2018-08-13T17:35:32.269Z,38.80
2018-08-13T17:38:03.073Z,39.60
2018-08-13T17:40:32.065Z,39.30
2018-08-13T17:43:01.250Z,39.10
2018-08-13T17:45:30.308Z,40.30
2018-08-13T17:47:59.484Z,41.20
2018-08-13T17:50:28.403Z,41.80
2018-08-13T17:52:57.283Z,42.50
2018-08-13T17:55:26.420Z,43.00
2018-08-13T17:57:55.326Z,42.80
2018-08-13T18:00:25.488Z,43.40
2018-08-13T18:02:54.496Z,44.00
2018-08-13T18:05:25.239Z,44.30
2018-08-13T18:07:54.893Z,43.90
2018-08-13T18:10:27.187Z,43.90
2018-08-13T18:12:56.930Z,43.90
2018-08-13T18:15:27.403Z,43.90
2018-08-13T18:17:56.521Z,43.60
2018-08-13T18:20:25.441Z,44.00
2018-08-13T18:22:54.430Z,43.60
2018-08-13T18:25:23.303Z,43.90
2018-08-13T18:27:52.974Z,43.90
2018-08-13T18:30:24.320Z,43.60
2018-08-13T18:32:53.626Z,43.60
2018-08-13T18:35:22.560Z,43.40
2018-08-13T18:37:51.462Z,44.10
2018-08-13T18:40:22.702Z,44.70
2018-08-13T18:42:51.892Z,44.70
2018-08-13T18:45:20.783Z,44.90
2018-08-13T18:47:50.131Z,45.80
2018-08-13T18:50:20.254Z,46.70
2018-08-13T18:52:49.465Z,47.10
2018-08-13T18:55:20.909Z,48.10
2018-08-13T18:57:50.158Z,48.90
2018-08-13T19:00:21.670Z,49.60
2018-08-13T19:02:50.954Z,48.70
2018-08-13T19:05:20.318Z,48.70
2018-08-13T19:07:49.849Z,49.20
2018-08-13T19:10:19.538Z,49.30
2018-08-13T19:12:48.477Z,50.20
2018-08-13T19:15:20.646Z,51.50
2018-08-13T19:17:50.188Z,53.00
2018-08-13T19:20:19.063Z,53.80
2018-08-13T19:22:48.534Z,53.60
2018-08-13T19:25:26.176Z,53.30
2018-08-13T19:27:55.316Z,53.00
2018-08-13T19:30:25.184Z,54.10
2018-08-13T19:32:54.555Z,54.60
2018-08-13T19:35:23.484Z,54.20
2018-08-13T19:37:52.399Z,53.20
2018-08-13T19:40:23.760Z,52.60
2018-08-13T19:42:53.369Z,51.80
2018-08-13T19:45:22.988Z,52.10
2018-08-13T19:47:52.630Z,52.30
2018-08-13T19:50:21.893Z,53.60
2018-08-13T19:52:51.179Z,54.30
2018-08-13T19:55:21.036Z,54.30
2018-08-13T19:57:50.238Z,54.60
2018-08-13T20:00:23.580Z,54.80
2018-08-13T20:02:52.930Z,55.70
2018-08-13T20:05:23.105Z,57.00
2018-08-13T20:07:52.834Z,57.00
2018-08-13T20:10:22.202Z,56.90
2018-08-13T20:12:51.118Z,57.00
2018-08-13T20:15:20.109Z,56.10
2018-08-13T20:17:49.073Z,57.60
2018-08-13T20:20:19.700Z,57.70
2018-08-13T20:22:49.546Z,57.60
2018-08-13T20:25:19.724Z,57.40
2018-08-13T20:27:49.451Z,58.00
2018-08-13T20:30:19.703Z,58.30
2018-08-13T20:32:49.710Z,58.30
2018-08-13T20:35:18.692Z,57.30
2018-08-13T20:37:47.652Z,56.60
2018-08-13T20:40:18.111Z,57.60
2018-08-13T20:42:47.641Z,57.70
2018-08-13T20:45:18.454Z,58.50
2018-08-13T20:47:47.559Z,58.90
2018-08-13T20:50:18.750Z,58.90
2018-08-13T20:52:48.895Z,58.80
2018-08-13T20:55:19.730Z,58.60
2018-08-13T20:57:49.212Z,58.00
2018-08-13T21:00:19.826Z,60.30
2018-08-13T21:02:48.785Z,61.00
2018-08-13T21:05:18.006Z,60.60
2018-08-13T21:07:48.213Z,61.70
2018-08-13T21:10:18.850Z,61.70
2018-08-13T21:12:47.888Z,61.30
2018-08-13T21:15:16.888Z,61.90
2018-08-13T21:17:45.944Z,60.80
2018-08-13T21:20:25.666Z,60.80
2018-08-13T21:22:54.874Z,60.00
2018-08-13T21:25:23.806Z,59.80
2018-08-13T21:27:53.056Z,59.70
2018-08-13T21:30:21.917Z,60.10
2018-08-13T21:32:51.068Z,60.30
2018-08-13T21:35:22.403Z,60.10
2018-08-13T21:37:51.796Z,60.00
2018-08-13T21:40:21.022Z,60.60
2018-08-13T21:42:50.370Z,61.20
2018-08-13T21:45:19.831Z,61.70
2018-08-13T21:47:49.156Z,62.80
2018-08-13T21:50:20.362Z,62.80
2018-08-13T21:52:49.973Z,62.60
2018-08-13T21:55:19.355Z,62.80
2018-08-13T21:57:48.288Z,63.10
2018-08-13T22:00:30.050Z,62.80
2018-08-13T22:03:02.429Z,62.20
2018-08-13T22:05:31.724Z,63.90
2018-08-13T22:08:00.875Z,66.00
2018-08-13T22:10:29.762Z,67.40
2018-08-13T22:12:59.343Z,68.00
2018-08-13T22:15:29.347Z,68.50
2018-08-13T22:18:00.208Z,68.70
2018-08-13T22:20:30.028Z,67.10
2018-08-13T22:22:59.848Z,65.50
2018-08-13T22:25:34.646Z,63.70
2018-08-13T22:28:05.323Z,62.20
2018-08-13T22:30:35.416Z,61.70
2018-08-13T22:33:04.640Z,61.00
2018-08-13T22:35:33.527Z,59.50
2018-08-13T22:38:02.694Z,59.50
2018-08-13T22:40:31.884Z,58.60
2018-08-13T22:43:00.859Z,58.20
2018-08-13T22:45:29.722Z,59.10
2018-08-13T22:47:58.608Z,58.30
2018-08-13T22:50:27.487Z,59.10
2018-08-13T22:52:56.713Z,58.50
2018-08-13T22:55:25.638Z,58.80
2018-08-13T22:57:54.535Z,59.10
2018-08-13T23:00:23.483Z,59.50
2018-08-13T23:02:52.507Z,59.40
2018-08-13T23:05:23.240Z,58.90
2018-08-13T23:07:52.142Z,59.50
2018-08-13T23:10:22.179Z,59.20
2018-08-13T23:12:52.900Z,57.90
2018-08-13T23:15:21.783Z,57.20
2018-08-13T23:17:51.098Z,57.30
2018-08-13T23:20:26.257Z,55.70
2018-08-13T23:22:58.066Z,57.60
2018-08-13T23:25:27.364Z,57.20
2018-08-13T23:27:57.596Z,56.70
2018-08-13T23:30:26.900Z,56.90
2018-08-13T23:32:56.771Z,56.60
2018-08-13T23:35:26.301Z,57.00
2018-08-13T23:37:55.278Z,57.40
2018-08-13T23:40:24.813Z,57.60
2018-08-13T23:42:53.950Z,57.30
2018-08-13T23:45:24.072Z,57.20
2018-08-13T23:47:53.075Z,57.90
2018-08-13T23:50:23.419Z,57.90
2018-08-13T23:52:53.492Z,57.40
2018-08-13T23:55:23.867Z,57.90
2018-08-13T23:57:52.938Z,58.50
